sensor_id;sensor_type;location;lat;lon;timestamp;P1;durP1;ratioP1;P2;durP2;ratioP2
4206;SDS011;2117;47.972;7.830;2024-01-07T00:02:24;6.40;;;5.10;;
4206;SDS011;2117;47.972;7.830;2024-01-07T00:04:50;6.50;;;5.17;;
4206;SDS011;2117;47.972;7.830;2024-01-07T00:07:16;6.60;;;4.30;;
4206;SDS011;2117;47.972;7.830;2024-01-07T00:09:41;9.50;;;5.70;;
4206;SDS011;2117;47.972;7.830;2024-01-07T00:12:07;7.50;;;5.47;;
4206;SDS011;2117;47.972;7.830;2024-01-07T00:14:33;7.40;;;5.50;;
4206;SDS011;2117;47.972;7.830;2024-01-07T00:16:58;6.10;;;4.47;;
4206;SDS011;2117;47.972;7.830;2024-01-07T00:19:24;5.00;;;3.90;;
4206;SDS011;2117;47.972;7.830;2024-01-07T00:21:50;4.80;;;4.17;;
4206;SDS011;2117;47.972;7.830;2024-01-07T00:24:15;5.30;;;4.50;;
4206;SDS011;2117;47.972;7.830;2024-01-07T00:26:41;4.70;;;3.80;;
4206;SDS011;2117;47.972;7.830;2024-01-07T00:29:06;5.30;;;4.07;;
4206;SDS011;2117;47.972;7.830;2024-01-07T00:31:32;5.30;;;3.30;;
4206;SDS011;2117;47.972;7.830;2024-01-07T00:33:58;4.50;;;3.33;;
4206;SDS011;2117;47.972;7.830;2024-01-07T00:36:24;3.70;;;3.13;;
4206;SDS011;2117;47.972;7.830;2024-01-07T00:38:49;4.60;;;3.30;;
4206;SDS011;2117;47.972;7.830;2024-01-07T00:41:15;4.40;;;2.97;;
4206;SDS011;2117;47.972;7.830;2024-01-07T00:43:41;4.43;;;3.30;;
4206;SDS011;2117;47.972;7.830;2024-01-07T00:46:06;4.83;;;3.50;;
4206;SDS011;2117;47.972;7.830;2024-01-07T00:48:32;6.80;;;3.60;;
4206;SDS011;2117;47.972;7.830;2024-01-07T00:50:57;4.10;;;3.07;;
4206;SDS011;2117;47.972;7.830;2024-01-07T00:53:23;5.47;;;3.50;;
4206;SDS011;2117;47.972;7.830;2024-01-07T00:55:49;4.10;;;2.80;;
4206;SDS011;2117;47.972;7.830;2024-01-07T00:58:14;4.43;;;2.77;;
4206;SDS011;2117;47.972;7.830;2024-01-07T01:00:40;3.10;;;2.57;;
4206;SDS011;2117;47.972;7.830;2024-01-07T01:03:05;3.20;;;2.43;;
4206;SDS011;2117;47.972;7.830;2024-01-07T01:05:31;3.97;;;3.00;;
4206;SDS011;2117;47.972;7.830;2024-01-07T01:07:56;4.60;;;2.57;;
4206;SDS011;2117;47.972;7.830;2024-01-07T01:10:22;4.17;;;2.57;;
4206;SDS011;2117;47.972;7.830;2024-01-07T01:12:47;4.87;;;3.27;;
4206;SDS011;2117;47.972;7.830;2024-01-07T01:15:13;4.80;;;3.83;;
4206;SDS011;2117;47.972;7.830;2024-01-07T01:17:41;5.17;;;3.70;;
4206;SDS011;2117;47.972;7.830;2024-01-07T01:20:07;4.23;;;2.97;;
4206;SDS011;2117;47.972;7.830;2024-01-07T01:22:33;5.87;;;3.20;;
4206;SDS011;2117;47.972;7.830;2024-01-07T01:24:59;4.80;;;2.80;;
4206;SDS011;2117;47.972;7.830;2024-01-07T01:27:24;3.43;;;2.70;;
4206;SDS011;2117;47.972;7.830;2024-01-07T01:29:50;3.20;;;1.87;;
4206;SDS011;2117;47.972;7.830;2024-01-07T01:32:16;6.50;;;2.17;;
4206;SDS011;2117;47.972;7.830;2024-01-07T01:34:42;2.63;;;2.07;;
4206;SDS011;2117;47.972;7.830;2024-01-07T01:37:08;3.33;;;2.27;;
4206;SDS011;2117;47.972;7.830;2024-01-07T01:39:33;2.90;;;2.20;;
4206;SDS011;2117;47.972;7.830;2024-01-07T01:42:00;4.07;;;2.30;;
4206;SDS011;2117;47.972;7.830;2024-01-07T01:44:26;3.60;;;2.67;;
4206;SDS011;2117;47.972;7.830;2024-01-07T01:46:55;2.97;;;2.20;;
4206;SDS011;2117;47.972;7.830;2024-01-07T01:49:21;3.20;;;2.00;;
4206;SDS011;2117;47.972;7.830;2024-01-07T01:51:47;3.83;;;2.13;;
4206;SDS011;2117;47.972;7.830;2024-01-07T01:54:12;3.13;;;1.70;;
4206;SDS011;2117;47.972;7.830;2024-01-07T01:56:38;1.97;;;1.47;;
4206;SDS011;2117;47.972;7.830;2024-01-07T01:59:04;2.53;;;1.60;;
4206;SDS011;2117;47.972;7.830;2024-01-07T02:01:30;4.23;;;1.60;;
4206;SDS011;2117;47.972;7.830;2024-01-07T02:03:56;2.87;;;1.77;;
4206;SDS011;2117;47.972;7.830;2024-01-07T02:06:22;2.70;;;2.10;;
4206;SDS011;2117;47.972;7.830;2024-01-07T02:08:48;2.77;;;2.27;;
4206;SDS011;2117;47.972;7.830;2024-01-07T02:11:15;3.20;;;2.07;;
4206;SDS011;2117;47.972;7.830;2024-01-07T02:13:45;2.63;;;1.90;;
4206;SDS011;2117;47.972;7.830;2024-01-07T02:16:11;4.27;;;2.97;;
4206;SDS011;2117;47.972;7.830;2024-01-07T02:18:37;7.73;;;5.20;;
4206;SDS011;2117;47.972;7.830;2024-01-07T02:21:06;10.70;;;8.57;;
4206;SDS011;2117;47.972;7.830;2024-01-07T02:23:32;15.63;;;11.53;;
4206;SDS011;2117;47.972;7.830;2024-01-07T02:25:58;20.07;;;13.90;;
4206;SDS011;2117;47.972;7.830;2024-01-07T02:28:23;18.17;;;11.73;;
4206;SDS011;2117;47.972;7.830;2024-01-07T02:30:49;21.87;;;15.60;;
4206;SDS011;2117;47.972;7.830;2024-01-07T02:33:15;20.70;;;14.60;;
4206;SDS011;2117;47.972;7.830;2024-01-07T02:35:40;22.13;;;15.80;;
4206;SDS011;2117;47.972;7.830;2024-01-07T02:38:06;21.00;;;14.90;;
4206;SDS011;2117;47.972;7.830;2024-01-07T02:40:31;20.77;;;15.80;;
4206;SDS011;2117;47.972;7.830;2024-01-07T02:42:57;20.90;;;15.13;;
4206;SDS011;2117;47.972;7.830;2024-01-07T02:45:23;20.70;;;15.23;;
4206;SDS011;2117;47.972;7.830;2024-01-07T02:47:49;23.10;;;16.83;;
4206;SDS011;2117;47.972;7.830;2024-01-07T02:50:14;23.47;;;15.90;;
4206;SDS011;2117;47.972;7.830;2024-01-07T02:52:41;22.90;;;15.43;;
4206;SDS011;2117;47.972;7.830;2024-01-07T02:55:07;25.00;;;16.90;;
4206;SDS011;2117;47.972;7.830;2024-01-07T02:57:33;22.70;;;16.57;;
4206;SDS011;2117;47.972;7.830;2024-01-07T02:59:58;21.70;;;14.63;;
4206;SDS011;2117;47.972;7.830;2024-01-07T03:02:24;18.70;;;13.63;;
4206;SDS011;2117;47.972;7.830;2024-01-07T03:04:49;19.87;;;13.73;;
4206;SDS011;2117;47.972;7.830;2024-01-07T03:07:15;19.90;;;13.50;;
4206;SDS011;2117;47.972;7.830;2024-01-07T03:09:40;18.60;;;12.00;;
4206;SDS011;2117;47.972;7.830;2024-01-07T03:12:06;14.97;;;11.20;;
4206;SDS011;2117;47.972;7.830;2024-01-07T03:14:32;14.80;;;11.60;;
4206;SDS011;2117;47.972;7.830;2024-01-07T03:16:57;18.17;;;11.53;;
4206;SDS011;2117;47.972;7.830;2024-01-07T03:19:23;14.63;;;10.30;;
4206;SDS011;2117;47.972;7.830;2024-01-07T03:21:48;16.40;;;11.73;;
4206;SDS011;2117;47.972;7.830;2024-01-07T03:24:14;15.70;;;11.77;;
4206;SDS011;2117;47.972;7.830;2024-01-07T03:26:39;18.57;;;12.60;;
4206;SDS011;2117;47.972;7.830;2024-01-07T03:29:05;18.13;;;12.93;;
4206;SDS011;2117;47.972;7.830;2024-01-07T03:31:31;17.53;;;12.73;;
4206;SDS011;2117;47.972;7.830;2024-01-07T03:33:56;19.63;;;11.87;;
4206;SDS011;2117;47.972;7.830;2024-01-07T03:36:22;15.40;;;10.50;;
4206;SDS011;2117;47.972;7.830;2024-01-07T03:38:48;16.10;;;11.23;;
4206;SDS011;2117;47.972;7.830;2024-01-07T03:41:17;16.40;;;10.90;;
4206;SDS011;2117;47.972;7.830;2024-01-07T03:43:44;15.67;;;10.43;;
4206;SDS011;2117;47.972;7.830;2024-01-07T03:46:10;13.60;;;10.50;;
4206;SDS011;2117;47.972;7.830;2024-01-07T03:48:36;12.50;;;9.53;;
4206;SDS011;2117;47.972;7.830;2024-01-07T03:51:01;14.40;;;11.07;;
4206;SDS011;2117;47.972;7.830;2024-01-07T03:53:27;19.20;;;10.93;;
4206;SDS011;2117;47.972;7.830;2024-01-07T03:55:53;14.20;;;11.30;;
4206;SDS011;2117;47.972;7.830;2024-01-07T03:58:18;15.47;;;11.77;;
4206;SDS011;2117;47.972;7.830;2024-01-07T04:00:44;15.37;;;12.17;;
4206;SDS011;2117;47.972;7.830;2024-01-07T04:03:09;15.73;;;11.10;;
4206;SDS011;2117;47.972;7.830;2024-01-07T04:05:35;16.80;;;11.07;;
4206;SDS011;2117;47.972;7.830;2024-01-07T04:08:01;18.70;;;12.20;;
4206;SDS011;2117;47.972;7.830;2024-01-07T04:10:27;17.60;;;12.43;;
4206;SDS011;2117;47.972;7.830;2024-01-07T04:12:53;19.97;;;14.80;;
4206;SDS011;2117;47.972;7.830;2024-01-07T04:15:19;21.90;;;14.40;;
4206;SDS011;2117;47.972;7.830;2024-01-07T04:17:45;18.10;;;12.73;;
4206;SDS011;2117;47.972;7.830;2024-01-07T04:20:12;22.00;;;14.63;;
4206;SDS011;2117;47.972;7.830;2024-01-07T04:22:39;22.20;;;14.33;;
4206;SDS011;2117;47.972;7.830;2024-01-07T04:25:04;17.30;;;12.90;;
4206;SDS011;2117;47.972;7.830;2024-01-07T04:27:33;18.23;;;12.40;;
4206;SDS011;2117;47.972;7.830;2024-01-07T04:30:00;18.53;;;12.93;;
4206;SDS011;2117;47.972;7.830;2024-01-07T04:32:26;16.47;;;12.03;;
4206;SDS011;2117;47.972;7.830;2024-01-07T04:34:51;16.87;;;12.53;;
4206;SDS011;2117;47.972;7.830;2024-01-07T04:37:17;17.97;;;12.40;;
4206;SDS011;2117;47.972;7.830;2024-01-07T04:39:43;19.10;;;13.63;;
4206;SDS011;2117;47.972;7.830;2024-01-07T04:42:08;17.93;;;12.70;;
4206;SDS011;2117;47.972;7.830;2024-01-07T04:44:34;20.13;;;12.57;;
4206;SDS011;2117;47.972;7.830;2024-01-07T04:46:59;19.40;;;13.50;;
4206;SDS011;2117;47.972;7.830;2024-01-07T04:49:25;17.17;;;13.63;;
4206;SDS011;2117;47.972;7.830;2024-01-07T04:51:51;17.03;;;12.00;;
4206;SDS011;2117;47.972;7.830;2024-01-07T04:54:16;18.73;;;13.00;;
4206;SDS011;2117;47.972;7.830;2024-01-07T04:56:43;20.13;;;13.10;;
4206;SDS011;2117;47.972;7.830;2024-01-07T04:59:09;25.27;;;14.80;;
4206;SDS011;2117;47.972;7.830;2024-01-07T05:01:34;20.23;;;13.37;;
4206;SDS011;2117;47.972;7.830;2024-01-07T05:04:01;20.40;;;13.90;;
4206;SDS011;2117;47.972;7.830;2024-01-07T05:06:27;26.67;;;14.90;;
4206;SDS011;2117;47.972;7.830;2024-01-07T05:08:52;24.83;;;14.47;;
4206;SDS011;2117;47.972;7.830;2024-01-07T05:11:18;29.13;;;16.80;;
4206;SDS011;2117;47.972;7.830;2024-01-07T05:13:43;24.93;;;16.27;;
4206;SDS011;2117;47.972;7.830;2024-01-07T05:16:09;27.80;;;18.13;;
4206;SDS011;2117;47.972;7.830;2024-01-07T05:18:45;31.17;;;17.40;;
4206;SDS011;2117;47.972;7.830;2024-01-07T05:21:13;28.80;;;17.90;;
4206;SDS011;2117;47.972;7.830;2024-01-07T05:23:48;25.80;;;17.30;;
4206;SDS011;2117;47.972;7.830;2024-01-07T05:26:13;26.30;;;17.80;;
4206;SDS011;2117;47.972;7.830;2024-01-07T05:28:40;32.40;;;18.00;;
4206;SDS011;2117;47.972;7.830;2024-01-07T05:31:13;32.67;;;19.77;;
4206;SDS011;2117;47.972;7.830;2024-01-07T05:33:39;26.03;;;16.57;;
4206;SDS011;2117;47.972;7.830;2024-01-07T05:36:05;25.37;;;15.57;;
4206;SDS011;2117;47.972;7.830;2024-01-07T05:38:31;26.50;;;15.83;;
4206;SDS011;2117;47.972;7.830;2024-01-07T05:40:56;24.53;;;15.57;;
4206;SDS011;2117;47.972;7.830;2024-01-07T05:43:22;24.83;;;16.60;;
4206;SDS011;2117;47.972;7.830;2024-01-07T05:45:47;26.03;;;16.47;;
4206;SDS011;2117;47.972;7.830;2024-01-07T05:48:13;21.57;;;14.57;;
4206;SDS011;2117;47.972;7.830;2024-01-07T05:50:38;24.50;;;15.07;;
4206;SDS011;2117;47.972;7.830;2024-01-07T05:53:04;23.77;;;14.20;;
4206;SDS011;2117;47.972;7.830;2024-01-07T05:55:29;24.80;;;14.43;;
4206;SDS011;2117;47.972;7.830;2024-01-07T05:57:55;23.20;;;14.83;;
4206;SDS011;2117;47.972;7.830;2024-01-07T06:00:21;21.33;;;14.37;;
4206;SDS011;2117;47.972;7.830;2024-01-07T06:02:48;23.80;;;15.43;;
4206;SDS011;2117;47.972;7.830;2024-01-07T06:05:13;21.40;;;13.80;;
4206;SDS011;2117;47.972;7.830;2024-01-07T06:07:39;20.13;;;13.50;;
4206;SDS011;2117;47.972;7.830;2024-01-07T06:10:04;15.87;;;12.53;;
4206;SDS011;2117;47.972;7.830;2024-01-07T06:12:31;25.67;;;14.23;;
4206;SDS011;2117;47.972;7.830;2024-01-07T06:14:56;19.63;;;13.30;;
4206;SDS011;2117;47.972;7.830;2024-01-07T06:17:22;17.03;;;12.00;;
4206;SDS011;2117;47.972;7.830;2024-01-07T06:19:48;17.57;;;11.73;;
4206;SDS011;2117;47.972;7.830;2024-01-07T06:22:13;17.23;;;12.03;;
4206;SDS011;2117;47.972;7.830;2024-01-07T06:24:39;16.17;;;11.10;;
4206;SDS011;2117;47.972;7.830;2024-01-07T06:27:04;13.60;;;10.03;;
4206;SDS011;2117;47.972;7.830;2024-01-07T06:29:30;14.13;;;10.03;;
4206;SDS011;2117;47.972;7.830;2024-01-07T06:31:55;12.87;;;9.27;;
4206;SDS011;2117;47.972;7.830;2024-01-07T06:34:21;12.87;;;9.77;;
4206;SDS011;2117;47.972;7.830;2024-01-07T06:36:46;14.90;;;10.70;;
4206;SDS011;2117;47.972;7.830;2024-01-07T06:39:12;15.10;;;10.00;;
4206;SDS011;2117;47.972;7.830;2024-01-07T06:41:38;16.90;;;9.80;;
4206;SDS011;2117;47.972;7.830;2024-01-07T06:44:03;12.17;;;9.10;;
4206;SDS011;2117;47.972;7.830;2024-01-07T06:46:29;15.30;;;8.60;;
4206;SDS011;2117;47.972;7.830;2024-01-07T06:48:54;14.07;;;10.00;;
4206;SDS011;2117;47.972;7.830;2024-01-07T06:51:20;13.53;;;9.70;;
4206;SDS011;2117;47.972;7.830;2024-01-07T06:53:46;14.03;;;8.90;;
4206;SDS011;2117;47.972;7.830;2024-01-07T06:56:11;14.17;;;8.50;;
4206;SDS011;2117;47.972;7.830;2024-01-07T06:58:38;14.60;;;9.57;;
4206;SDS011;2117;47.972;7.830;2024-01-07T07:01:06;12.97;;;9.00;;
4206;SDS011;2117;47.972;7.830;2024-01-07T07:03:32;11.37;;;8.40;;
4206;SDS011;2117;47.972;7.830;2024-01-07T07:05:58;14.20;;;9.40;;
4206;SDS011;2117;47.972;7.830;2024-01-07T07:08:23;13.10;;;8.53;;
4206;SDS011;2117;47.972;7.830;2024-01-07T07:10:49;10.93;;;7.67;;
4206;SDS011;2117;47.972;7.830;2024-01-07T07:13:14;12.87;;;8.57;;
4206;SDS011;2117;47.972;7.830;2024-01-07T07:15:40;12.40;;;8.87;;
4206;SDS011;2117;47.972;7.830;2024-01-07T07:18:06;12.40;;;8.07;;
4206;SDS011;2117;47.972;7.830;2024-01-07T07:20:31;16.33;;;9.47;;
4206;SDS011;2117;47.972;7.830;2024-01-07T07:22:57;11.90;;;7.40;;
4206;SDS011;2117;47.972;7.830;2024-01-07T07:25:22;11.53;;;6.57;;
4206;SDS011;2117;47.972;7.830;2024-01-07T07:27:48;10.27;;;7.30;;
4206;SDS011;2117;47.972;7.830;2024-01-07T07:30:13;10.50;;;6.93;;
4206;SDS011;2117;47.972;7.830;2024-01-07T07:32:40;11.70;;;7.32;;
4206;SDS011;2117;47.972;7.830;2024-01-07T07:35:09;12.00;;;6.43;;
4206;SDS011;2117;47.972;7.830;2024-01-07T07:37:35;12.73;;;6.93;;
4206;SDS011;2117;47.972;7.830;2024-01-07T07:40:00;13.67;;;7.90;;
4206;SDS011;2117;47.972;7.830;2024-01-07T07:42:26;17.50;;;8.77;;
4206;SDS011;2117;47.972;7.830;2024-01-07T07:44:52;10.07;;;7.13;;
4206;SDS011;2117;47.972;7.830;2024-01-07T07:47:17;19.30;;;8.63;;
4206;SDS011;2117;47.972;7.830;2024-01-07T07:49:43;13.87;;;9.40;;
4206;SDS011;2117;47.972;7.830;2024-01-07T07:52:09;15.23;;;8.57;;
4206;SDS011;2117;47.972;7.830;2024-01-07T07:54:36;19.43;;;10.70;;
4206;SDS011;2117;47.972;7.830;2024-01-07T07:57:02;15.40;;;9.27;;
4206;SDS011;2117;47.972;7.830;2024-01-07T07:59:28;16.23;;;10.30;;
4206;SDS011;2117;47.972;7.830;2024-01-07T08:01:54;17.20;;;9.10;;
4206;SDS011;2117;47.972;7.830;2024-01-07T08:04:20;19.27;;;10.47;;
4206;SDS011;2117;47.972;7.830;2024-01-07T08:06:45;15.60;;;10.33;;
4206;SDS011;2117;47.972;7.830;2024-01-07T08:09:11;17.03;;;10.80;;
4206;SDS011;2117;47.972;7.830;2024-01-07T08:11:36;19.80;;;11.37;;
4206;SDS011;2117;47.972;7.830;2024-01-07T08:14:02;20.20;;;9.90;;
4206;SDS011;2117;47.972;7.830;2024-01-07T08:16:27;22.97;;;11.03;;
4206;SDS011;2117;47.972;7.830;2024-01-07T08:18:53;24.10;;;11.47;;
4206;SDS011;2117;47.972;7.830;2024-01-07T08:21:21;20.23;;;10.80;;
4206;SDS011;2117;47.972;7.830;2024-01-07T08:23:48;21.70;;;11.70;;
4206;SDS011;2117;47.972;7.830;2024-01-07T08:26:20;24.43;;;12.80;;
4206;SDS011;2117;47.972;7.830;2024-01-07T08:28:46;19.10;;;11.87;;
4206;SDS011;2117;47.972;7.830;2024-01-07T08:31:11;19.10;;;12.73;;
4206;SDS011;2117;47.972;7.830;2024-01-07T08:33:37;21.40;;;11.00;;
4206;SDS011;2117;47.972;7.830;2024-01-07T08:36:02;19.90;;;10.80;;
4206;SDS011;2117;47.972;7.830;2024-01-07T08:38:29;18.90;;;11.87;;
4206;SDS011;2117;47.972;7.830;2024-01-07T08:40:55;18.70;;;10.07;;
4206;SDS011;2117;47.972;7.830;2024-01-07T08:43:20;21.50;;;13.70;;
4206;SDS011;2117;47.972;7.830;2024-01-07T08:45:46;20.77;;;12.70;;
4206;SDS011;2117;47.972;7.830;2024-01-07T08:48:11;21.83;;;12.60;;
4206;SDS011;2117;47.972;7.830;2024-01-07T08:50:37;19.80;;;10.93;;
4206;SDS011;2117;47.972;7.830;2024-01-07T08:53:03;25.77;;;13.07;;
4206;SDS011;2117;47.972;7.830;2024-01-07T08:55:29;23.90;;;11.80;;
4206;SDS011;2117;47.972;7.830;2024-01-07T08:57:55;17.50;;;10.93;;
4206;SDS011;2117;47.972;7.830;2024-01-07T09:00:21;19.80;;;11.63;;
4206;SDS011;2117;47.972;7.830;2024-01-07T09:02:51;15.00;;;10.20;;
4206;SDS011;2117;47.972;7.830;2024-01-07T09:05:16;14.23;;;8.67;;
4206;SDS011;2117;47.972;7.830;2024-01-07T09:07:42;18.33;;;10.27;;
4206;SDS011;2117;47.972;7.830;2024-01-07T09:10:08;14.23;;;9.40;;
4206;SDS011;2117;47.972;7.830;2024-01-07T09:12:35;15.17;;;10.20;;
4206;SDS011;2117;47.972;7.830;2024-01-07T09:15:03;16.00;;;10.07;;
4206;SDS011;2117;47.972;7.830;2024-01-07T09:17:29;15.63;;;10.03;;
4206;SDS011;2117;47.972;7.830;2024-01-07T09:19:56;18.03;;;11.10;;
4206;SDS011;2117;47.972;7.830;2024-01-07T09:22:21;11.87;;;8.80;;
4206;SDS011;2117;47.972;7.830;2024-01-07T09:24:47;16.10;;;9.53;;
4206;SDS011;2117;47.972;7.830;2024-01-07T09:27:12;19.30;;;11.03;;
4206;SDS011;2117;47.972;7.830;2024-01-07T09:29:39;16.90;;;11.10;;
4206;SDS011;2117;47.972;7.830;2024-01-07T09:32:04;14.90;;;10.50;;
4206;SDS011;2117;47.972;7.830;2024-01-07T09:34:30;20.73;;;11.13;;
4206;SDS011;2117;47.972;7.830;2024-01-07T09:36:56;19.97;;;11.80;;
4206;SDS011;2117;47.972;7.830;2024-01-07T09:39:21;22.10;;;12.37;;
4206;SDS011;2117;47.972;7.830;2024-01-07T09:41:47;20.70;;;12.43;;
4206;SDS011;2117;47.972;7.830;2024-01-07T09:44:12;19.73;;;12.00;;
4206;SDS011;2117;47.972;7.830;2024-01-07T09:46:38;19.60;;;13.53;;
4206;SDS011;2117;47.972;7.830;2024-01-07T09:49:06;21.70;;;13.60;;
4206;SDS011;2117;47.972;7.830;2024-01-07T09:51:31;20.77;;;12.57;;
4206;SDS011;2117;47.972;7.830;2024-01-07T09:54:02;21.70;;;13.47;;
4206;SDS011;2117;47.972;7.830;2024-01-07T09:56:50;21.30;;;13.50;;
4206;SDS011;2117;47.972;7.830;2024-01-07T09:59:20;20.63;;;12.50;;
4206;SDS011;2117;47.972;7.830;2024-01-07T10:01:46;23.80;;;15.10;;
4206;SDS011;2117;47.972;7.830;2024-01-07T10:04:12;23.50;;;15.10;;
4206;SDS011;2117;47.972;7.830;2024-01-07T10:06:38;23.43;;;15.20;;
4206;SDS011;2117;47.972;7.830;2024-01-07T10:09:05;22.73;;;13.70;;
4206;SDS011;2117;47.972;7.830;2024-01-07T10:11:31;20.17;;;13.77;;
4206;SDS011;2117;47.972;7.830;2024-01-07T10:13:58;23.57;;;15.10;;
4206;SDS011;2117;47.972;7.830;2024-01-07T10:16:24;22.27;;;15.03;;
4206;SDS011;2117;47.972;7.830;2024-01-07T10:18:50;23.20;;;14.50;;
4206;SDS011;2117;47.972;7.830;2024-01-07T10:21:16;23.13;;;15.53;;
4206;SDS011;2117;47.972;7.830;2024-01-07T10:23:42;27.10;;;18.30;;
4206;SDS011;2117;47.972;7.830;2024-01-07T10:26:08;29.00;;;16.40;;
4206;SDS011;2117;47.972;7.830;2024-01-07T10:28:34;30.57;;;15.60;;
4206;SDS011;2117;47.972;7.830;2024-01-07T10:31:00;26.73;;;16.50;;
4206;SDS011;2117;47.972;7.830;2024-01-07T10:33:30;30.43;;;18.57;;
4206;SDS011;2117;47.972;7.830;2024-01-07T10:36:00;26.07;;;16.33;;
4206;SDS011;2117;47.972;7.830;2024-01-07T10:38:29;32.00;;;19.40;;
4206;SDS011;2117;47.972;7.830;2024-01-07T10:40:54;30.60;;;17.93;;
4206;SDS011;2117;47.972;7.830;2024-01-07T10:43:24;33.20;;;19.53;;
4206;SDS011;2117;47.972;7.830;2024-01-07T10:45:53;26.07;;;16.77;;
4206;SDS011;2117;47.972;7.830;2024-01-07T10:48:20;26.93;;;16.07;;
4206;SDS011;2117;47.972;7.830;2024-01-07T10:50:46;31.23;;;18.10;;
4206;SDS011;2117;47.972;7.830;2024-01-07T10:53:17;28.70;;;16.87;;
4206;SDS011;2117;47.972;7.830;2024-01-07T10:55:52;27.90;;;18.47;;
4206;SDS011;2117;47.972;7.830;2024-01-07T10:58:22;35.10;;;18.57;;
4206;SDS011;2117;47.972;7.830;2024-01-07T11:00:48;30.33;;;16.40;;
4206;SDS011;2117;47.972;7.830;2024-01-07T11:08:22;20.67;;;14.77;;
4206;SDS011;2117;47.972;7.830;2024-01-07T11:11:16;18.17;;;13.50;;
4206;SDS011;2117;47.972;7.830;2024-01-07T11:13:43;22.90;;;14.10;;
4206;SDS011;2117;47.972;7.830;2024-01-07T11:16:09;20.93;;;13.70;;
4206;SDS011;2117;47.972;7.830;2024-01-07T11:18:49;19.63;;;13.07;;
4206;SDS011;2117;47.972;7.830;2024-01-07T11:21:23;20.43;;;14.53;;
4206;SDS011;2117;47.972;7.830;2024-01-07T11:23:51;19.87;;;13.83;;
4206;SDS011;2117;47.972;7.830;2024-01-07T11:26:18;17.33;;;13.00;;
4206;SDS011;2117;47.972;7.830;2024-01-07T11:28:55;15.03;;;11.20;;
4206;SDS011;2117;47.972;7.830;2024-01-07T11:31:24;19.93;;;12.53;;
4206;SDS011;2117;47.972;7.830;2024-01-07T11:34:07;16.37;;;12.37;;
4206;SDS011;2117;47.972;7.830;2024-01-07T11:36:36;19.10;;;13.30;;
4206;SDS011;2117;47.972;7.830;2024-01-07T11:39:03;16.13;;;11.33;;
4206;SDS011;2117;47.972;7.830;2024-01-07T11:41:31;25.03;;;13.10;;
4206;SDS011;2117;47.972;7.830;2024-01-07T11:43:59;17.17;;;12.50;;
4206;SDS011;2117;47.972;7.830;2024-01-07T11:46:28;19.10;;;12.37;;
4206;SDS011;2117;47.972;7.830;2024-01-07T11:48:58;13.57;;;10.50;;
4206;SDS011;2117;47.972;7.830;2024-01-07T11:51:33;15.90;;;11.30;;
4206;SDS011;2117;47.972;7.830;2024-01-07T11:54:00;17.27;;;11.60;;
4206;SDS011;2117;47.972;7.830;2024-01-07T11:56:26;14.13;;;9.73;;
4206;SDS011;2117;47.972;7.830;2024-01-07T11:58:52;18.07;;;11.53;;
4206;SDS011;2117;47.972;7.830;2024-01-07T12:01:18;16.73;;;10.63;;
4206;SDS011;2117;47.972;7.830;2024-01-07T12:03:44;16.90;;;11.43;;
4206;SDS011;2117;47.972;7.830;2024-01-07T12:06:11;20.00;;;12.67;;
4206;SDS011;2117;47.972;7.830;2024-01-07T12:08:39;15.60;;;11.30;;
4206;SDS011;2117;47.972;7.830;2024-01-07T12:11:08;15.67;;;11.40;;
4206;SDS011;2117;47.972;7.830;2024-01-07T12:13:36;18.20;;;11.60;;
4206;SDS011;2117;47.972;7.830;2024-01-07T12:16:02;17.07;;;11.07;;
4206;SDS011;2117;47.972;7.830;2024-01-07T12:18:29;14.00;;;9.30;;
4206;SDS011;2117;47.972;7.830;2024-01-07T12:20:58;15.70;;;10.73;;
4206;SDS011;2117;47.972;7.830;2024-01-07T12:23:25;19.17;;;11.53;;
4206;SDS011;2117;47.972;7.830;2024-01-07T12:25:51;11.80;;;10.20;;
4206;SDS011;2117;47.972;7.830;2024-01-07T12:28:31;16.53;;;11.77;;
4206;SDS011;2117;47.972;7.830;2024-01-07T12:30:57;15.33;;;11.20;;
4206;SDS011;2117;47.972;7.830;2024-01-07T12:33:23;17.77;;;11.00;;
4206;SDS011;2117;47.972;7.830;2024-01-07T12:35:51;13.70;;;9.87;;
4206;SDS011;2117;47.972;7.830;2024-01-07T12:38:22;14.90;;;11.10;;
4206;SDS011;2117;47.972;7.830;2024-01-07T12:40:52;14.50;;;11.10;;
4206;SDS011;2117;47.972;7.830;2024-01-07T12:43:17;15.27;;;10.73;;
4206;SDS011;2117;47.972;7.830;2024-01-07T12:45:43;14.40;;;10.17;;
4206;SDS011;2117;47.972;7.830;2024-01-07T12:48:09;18.47;;;11.40;;
4206;SDS011;2117;47.972;7.830;2024-01-07T12:50:35;16.13;;;10.60;;
4206;SDS011;2117;47.972;7.830;2024-01-07T12:53:01;17.37;;;11.40;;
4206;SDS011;2117;47.972;7.830;2024-01-07T12:55:27;15.80;;;10.40;;
4206;SDS011;2117;47.972;7.830;2024-01-07T12:57:52;13.77;;;9.87;;
4206;SDS011;2117;47.972;7.830;2024-01-07T13:00:19;18.10;;;12.17;;
4206;SDS011;2117;47.972;7.830;2024-01-07T13:02:45;16.90;;;11.20;;
4206;SDS011;2117;47.972;7.830;2024-01-07T13:05:10;19.40;;;12.73;;
4206;SDS011;2117;47.972;7.830;2024-01-07T13:07:36;19.17;;;13.03;;
4206;SDS011;2117;47.972;7.830;2024-01-07T13:10:01;16.00;;;11.83;;
4206;SDS011;2117;47.972;7.830;2024-01-07T13:12:27;18.70;;;13.37;;
4206;SDS011;2117;47.972;7.830;2024-01-07T13:14:53;17.00;;;12.63;;
4206;SDS011;2117;47.972;7.830;2024-01-07T13:17:18;19.17;;;12.47;;
4206;SDS011;2117;47.972;7.830;2024-01-07T13:19:44;14.30;;;10.43;;
4206;SDS011;2117;47.972;7.830;2024-01-07T13:22:10;17.17;;;12.30;;
4206;SDS011;2117;47.972;7.830;2024-01-07T13:24:36;19.00;;;12.57;;
4206;SDS011;2117;47.972;7.830;2024-01-07T13:27:01;16.90;;;12.57;;
4206;SDS011;2117;47.972;7.830;2024-01-07T13:29:27;18.40;;;13.10;;
4206;SDS011;2117;47.972;7.830;2024-01-07T13:31:53;17.50;;;12.50;;
4206;SDS011;2117;47.972;7.830;2024-01-07T13:34:18;19.30;;;12.90;;
4206;SDS011;2117;47.972;7.830;2024-01-07T13:36:44;16.60;;;11.50;;
4206;SDS011;2117;47.972;7.830;2024-01-07T13:39:10;18.47;;;12.33;;
4206;SDS011;2117;47.972;7.830;2024-01-07T13:41:35;16.20;;;11.73;;
4206;SDS011;2117;47.972;7.830;2024-01-07T13:44:02;16.97;;;12.97;;
4206;SDS011;2117;47.972;7.830;2024-01-07T13:46:32;16.50;;;12.90;;
4206;SDS011;2117;47.972;7.830;2024-01-07T13:48:57;17.70;;;11.57;;
4206;SDS011;2117;47.972;7.830;2024-01-07T13:51:24;23.23;;;15.90;;
4206;SDS011;2117;47.972;7.830;2024-01-07T13:53:51;19.30;;;14.10;;
4206;SDS011;2117;47.972;7.830;2024-01-07T13:56:17;22.40;;;14.47;;
4206;SDS011;2117;47.972;7.830;2024-01-07T13:58:42;22.77;;;16.37;;
4206;SDS011;2117;47.972;7.830;2024-01-07T14:01:11;25.60;;;16.50;;
4206;SDS011;2117;47.972;7.830;2024-01-07T14:03:37;23.33;;;14.90;;
4206;SDS011;2117;47.972;7.830;2024-01-07T14:06:03;23.60;;;15.47;;
4206;SDS011;2117;47.972;7.830;2024-01-07T14:08:28;21.63;;;15.20;;
4206;SDS011;2117;47.972;7.830;2024-01-07T14:10:54;23.00;;;16.40;;
4206;SDS011;2117;47.972;7.830;2024-01-07T14:13:19;22.30;;;15.77;;
4206;SDS011;2117;47.972;7.830;2024-01-07T14:15:45;21.87;;;14.27;;
4206;SDS011;2117;47.972;7.830;2024-01-07T14:18:11;18.23;;;13.13;;
4206;SDS011;2117;47.972;7.830;2024-01-07T14:20:40;20.87;;;14.30;;
4206;SDS011;2117;47.972;7.830;2024-01-07T14:23:07;22.80;;;13.83;;
4206;SDS011;2117;47.972;7.830;2024-01-07T14:25:32;20.50;;;13.63;;
4206;SDS011;2117;47.972;7.830;2024-01-07T14:27:58;21.30;;;15.00;;
4206;SDS011;2117;47.972;7.830;2024-01-07T14:30:24;23.40;;;15.33;;
4206;SDS011;2117;47.972;7.830;2024-01-07T14:32:49;20.90;;;14.50;;
4206;SDS011;2117;47.972;7.830;2024-01-07T14:35:15;19.57;;;13.97;;
4206;SDS011;2117;47.972;7.830;2024-01-07T14:37:41;20.70;;;14.33;;
4206;SDS011;2117;47.972;7.830;2024-01-07T14:40:07;22.13;;;14.53;;
4206;SDS011;2117;47.972;7.830;2024-01-07T14:42:33;20.77;;;13.27;;
4206;SDS011;2117;47.972;7.830;2024-01-07T14:44:58;20.53;;;14.50;;
4206;SDS011;2117;47.972;7.830;2024-01-07T14:47:24;20.00;;;13.80;;
4206;SDS011;2117;47.972;7.830;2024-01-07T14:49:49;18.10;;;13.97;;
4206;SDS011;2117;47.972;7.830;2024-01-07T14:52:15;20.10;;;13.40;;
4206;SDS011;2117;47.972;7.830;2024-01-07T14:54:40;14.87;;;11.00;;